createdAt,value
2022-12-27T00:04:08.371Z,3.97
2022-12-27T00:09:12.046Z,3.57
2022-12-27T00:14:15.598Z,4.60
2022-12-27T00:19:20.718Z,3.67
2022-12-27T00:24:24.201Z,4.23
2022-12-27T00:29:28.024Z,3.90
2022-12-27T00:34:32.929Z,3.90
2022-12-27T00:39:36.588Z,4.30
2022-12-27T00:44:40.261Z,4.30
2022-12-27T00:49:45.309Z,3.97
2022-12-27T00:54:48.808Z,4.03
2022-12-27T00:59:52.380Z,3.87
2022-12-27T01:04:57.668Z,3.50
2022-12-27T01:10:01.262Z,3.33
2022-12-27T01:15:05.509Z,3.87
2022-12-27T01:20:11.332Z,3.72
2022-12-27T01:25:14.908Z,3.17
2022-12-27T01:30:18.639Z,3.83
2022-12-27T01:35:23.534Z,3.50
2022-12-27T01:40:27.458Z,3.47
2022-12-27T01:45:34.435Z,4.07
2022-12-27T01:50:43.098Z,4.00
2022-12-27T01:55:50.656Z,3.80
2022-12-27T02:00:54.946Z,4.20
2022-12-27T02:06:01.403Z,4.53
2022-12-27T02:11:06.047Z,3.80
2022-12-27T02:21:40.269Z,3.47
2022-12-27T02:26:54.541Z,3.80
2022-12-27T02:32:08.160Z,3.72
2022-12-27T02:37:13.881Z,3.27
2022-12-27T02:42:36.730Z,3.47
2022-12-27T02:47:59.813Z,3.60
2022-12-27T02:53:11.643Z,3.70
2022-12-27T02:58:28.254Z,3.33
2022-12-27T03:03:53.977Z,3.60
2022-12-27T03:09:03.344Z,4.23
2022-12-27T03:14:31.771Z,4.83
2022-12-27T03:20:01.097Z,4.83
2022-12-27T03:25:23.540Z,5.10
2022-12-27T03:30:44.313Z,3.83
2022-12-27T03:36:09.041Z,5.03
2022-12-27T03:41:36.466Z,5.13
2022-12-27T03:46:43.606Z,6.63
2022-12-27T03:51:53.015Z,5.77
2022-12-27T03:56:59.128Z,5.77
2022-12-27T04:02:03.314Z,5.23
2022-12-27T04:07:08.737Z,5.00
2022-12-27T04:12:29.766Z,5.23
2022-12-27T04:17:50.505Z,4.53
2022-12-27T04:23:12.687Z,4.07
2022-12-27T04:28:33.559Z,4.40
2022-12-27T04:33:54.238Z,4.00
2022-12-27T04:38:59.257Z,4.17
2022-12-27T04:44:19.749Z,3.80
2022-12-27T04:49:43.493Z,4.57
2022-12-27T04:55:00.532Z,4.93
2022-12-27T05:00:21.417Z,5.70
2022-12-27T05:05:25.635Z,5.50
2022-12-27T05:10:48.447Z,4.90
2022-12-27T05:15:51.858Z,4.70
2022-12-27T05:20:55.481Z,5.13
2022-12-27T05:26:00.365Z,5.17
2022-12-27T05:31:04.140Z,4.90
2022-12-27T05:36:08.991Z,6.80
2022-12-27T05:46:19.269Z,4.50
2022-12-27T05:51:23.384Z,3.57
2022-12-27T05:56:28.410Z,4.80
2022-12-27T06:01:32.245Z,5.20
2022-12-27T06:06:35.887Z,5.27
2022-12-27T06:11:41.082Z,4.77
2022-12-27T06:16:44.981Z,5.40
2022-12-27T06:21:48.762Z,4.97
2022-12-27T06:26:53.994Z,5.83
2022-12-27T06:31:57.720Z,5.33
2022-12-27T06:37:01.513Z,5.63
2022-12-27T06:42:06.743Z,5.97
2022-12-27T06:47:10.434Z,5.80
2022-12-27T06:52:14.121Z,6.10
2022-12-27T06:57:19.148Z,6.43
2022-12-27T07:02:22.631Z,5.90
2022-12-27T07:07:26.109Z,6.00
2022-12-27T07:12:36.588Z,8.30
2022-12-27T07:17:41.367Z,7.20
2022-12-27T07:22:44.764Z,7.85
2022-12-27T07:27:49.956Z,7.97
2022-12-27T07:32:53.434Z,7.03
2022-12-27T07:37:57.171Z,7.17
2022-12-27T07:43:01.999Z,7.77
2022-12-27T07:48:06.109Z,7.73
2022-12-27T07:53:09.585Z,7.70
2022-12-27T07:58:14.758Z,7.83
2022-12-27T08:03:19.332Z,7.57
2022-12-27T08:08:25.182Z,7.90
2022-12-27T08:13:30.095Z,8.00
2022-12-27T08:18:33.731Z,8.57
2022-12-27T08:23:37.290Z,7.87
2022-12-27T08:28:42.596Z,9.27
2022-12-27T08:33:46.060Z,7.27
2022-12-27T08:38:49.682Z,7.17
2022-12-27T08:43:54.609Z,8.00
2022-12-27T08:48:58.305Z,8.23
2022-12-27T08:54:01.775Z,5.83
2022-12-27T08:59:08.011Z,7.70
2022-12-27T09:04:11.504Z,7.17
2022-12-27T09:09:15.887Z,8.77
2022-12-27T09:14:21.591Z,8.15
2022-12-27T09:19:25.263Z,7.93
2022-12-27T09:24:28.746Z,8.37
2022-12-27T09:29:33.715Z,8.30
2022-12-27T09:34:37.195Z,8.87
2022-12-27T09:39:40.843Z,9.77
2022-12-27T09:44:52.069Z,7.93
2022-12-27T09:49:59.100Z,8.20
2022-12-27T09:55:08.034Z,9.60
2022-12-27T10:00:18.270Z,9.60
2022-12-27T10:05:24.042Z,10.00
2022-12-27T10:10:42.069Z,9.70
2022-12-27T10:15:52.546Z,10.27
2022-12-27T10:21:03.586Z,9.90
2022-12-27T10:26:13.350Z,8.03
2022-12-27T10:31:20.676Z,9.80
2022-12-27T10:36:26.728Z,8.90
2022-12-27T10:41:41.377Z,9.13
2022-12-27T10:46:53.323Z,10.60
2022-12-27T10:51:59.951Z,9.57
2022-12-27T10:57:19.937Z,9.27
2022-12-27T11:02:24.841Z,8.73
2022-12-27T11:07:33.920Z,9.50
2022-12-27T11:12:37.948Z,10.33
2022-12-27T11:17:46.711Z,11.18
2022-12-27T11:22:53.696Z,11.27
2022-12-27T11:28:01.952Z,10.53
2022-12-27T11:33:22.583Z,8.57
2022-12-27T11:38:30.862Z,11.20
2022-12-27T11:43:37.535Z,12.00
2022-12-27T11:48:47.075Z,11.63
2022-12-27T11:54:15.041Z,12.37
2022-12-27T11:59:52.411Z,12.53
2022-12-27T12:05:46.013Z,11.87
2022-12-27T12:10:56.188Z,12.73
2022-12-27T12:16:22.699Z,13.93
2022-12-27T12:21:27.637Z,13.13
2022-12-27T12:26:38.579Z,12.23
2022-12-27T12:32:07.035Z,13.97
2022-12-27T12:37:19.123Z,14.80
2022-12-27T12:42:31.086Z,15.07
2022-12-27T12:47:55.460Z,10.80
2022-12-27T12:53:20.427Z,14.43
2022-12-27T12:58:43.795Z,14.48
2022-12-27T13:04:12.296Z,14.60
2022-12-27T13:09:28.103Z,14.63
2022-12-27T13:14:54.882Z,15.77
2022-12-27T13:20:24.994Z,14.97
2022-12-27T13:25:38.831Z,14.93
2022-12-27T13:30:55.329Z,15.82
2022-12-27T13:36:12.315Z,15.52
2022-12-27T13:41:30.991Z,15.67
2022-12-27T13:46:55.064Z,16.20
2022-12-27T13:52:07.688Z,15.87
2022-12-27T13:57:35.532Z,15.43
2022-12-27T14:03:19.480Z,14.17
2022-12-27T14:08:34.510Z,14.23
2022-12-27T14:18:58.828Z,14.10
2022-12-27T14:24:18.625Z,14.80
2022-12-27T14:30:00.184Z,14.77
2022-12-27T14:35:31.828Z,15.27
2022-12-27T14:41:11.707Z,14.23
2022-12-27T14:46:38.832Z,14.97
2022-12-27T14:52:13.439Z,14.70
2022-12-27T14:57:33.350Z,14.90
2022-12-27T15:03:09.447Z,14.68
2022-12-27T15:08:41.406Z,14.97
2022-12-27T15:14:01.681Z,14.80
2022-12-27T15:19:24.208Z,14.17
2022-12-27T15:24:41.041Z,14.85
2022-12-27T15:30:09.394Z,14.35
2022-12-27T15:35:35.301Z,14.48
2022-12-27T15:40:50.445Z,15.80
2022-12-27T15:46:09.858Z,15.30
2022-12-27T15:51:21.112Z,16.80
2022-12-27T15:56:42.236Z,15.87
2022-12-27T16:01:46.644Z,14.43
2022-12-27T16:06:54.836Z,13.75
2022-12-27T16:12:06.294Z,13.90
2022-12-27T16:17:36.130Z,13.60
2022-12-27T16:22:43.341Z,14.15
2022-12-27T16:27:56.569Z,13.70
2022-12-27T16:33:01.117Z,13.05
2022-12-27T16:38:05.345Z,13.80
2022-12-27T16:43:42.997Z,13.23
2022-12-27T16:49:07.052Z,12.13
2022-12-27T16:54:24.876Z,13.57
2022-12-27T17:00:02.609Z,13.35
2022-12-27T17:05:34.267Z,12.90
2022-12-27T17:11:03.095Z,13.68
2022-12-27T17:16:20.330Z,13.07
2022-12-27T17:21:30.490Z,12.43
2022-12-27T17:27:09.313Z,13.02
2022-12-27T17:32:24.976Z,11.85
2022-12-27T17:37:37.002Z,13.07
2022-12-27T17:43:10.869Z,12.05
2022-12-27T17:48:25.544Z,12.25
2022-12-27T17:53:46.928Z,11.88
2022-12-27T17:58:52.697Z,12.15
2022-12-27T18:04:02.143Z,11.77
2022-12-27T18:09:07.194Z,12.57
2022-12-27T18:14:15.292Z,12.98
2022-12-27T18:19:22.081Z,11.75
2022-12-27T18:24:28.537Z,12.68
2022-12-27T18:29:32.581Z,12.15
2022-12-27T18:34:42.897Z,12.37
2022-12-27T18:39:52.025Z,12.02
2022-12-27T18:44:59.282Z,12.18
2022-12-27T18:50:07.123Z,11.60
2022-12-27T18:55:18.021Z,11.60
2022-12-27T19:00:25.253Z,12.57
2022-12-27T19:05:31.321Z,11.77
2022-12-27T19:10:35.071Z,12.93
2022-12-27T19:15:43.447Z,12.18
2022-12-27T19:20:56.032Z,12.48
2022-12-27T19:26:02.095Z,12.60
2022-12-27T19:31:09.768Z,12.52
2022-12-27T19:36:15.428Z,13.23
2022-12-27T19:41:19.033Z,12.82
2022-12-27T19:46:28.511Z,12.43
2022-12-27T19:51:36.636Z,12.15
2022-12-27T19:56:40.258Z,13.60
2022-12-27T20:01:44.898Z,12.20
2022-12-27T20:06:50.776Z,12.80
2022-12-27T20:11:54.590Z,11.20
2022-12-27T20:16:58.425Z,12.63
2022-12-27T20:22:03.343Z,12.75
2022-12-27T20:32:10.601Z,12.48
2022-12-27T20:37:19.681Z,12.27
2022-12-27T20:42:26.535Z,12.35
2022-12-27T20:47:29.982Z,11.87
2022-12-27T20:52:38.627Z,11.93
2022-12-27T20:57:42.745Z,11.35
2022-12-27T21:02:47.827Z,10.53
2022-12-27T21:07:54.234Z,11.23
2022-12-27T21:18:00.768Z,11.65
2022-12-27T21:23:05.737Z,12.35
2022-12-27T21:28:09.429Z,11.18
2022-12-27T21:33:13.028Z,12.38
2022-12-27T21:38:17.930Z,12.00
2022-12-27T21:48:26.228Z,12.10
2022-12-27T21:53:30.996Z,12.23
2022-12-27T21:58:35.231Z,12.52
2022-12-27T22:03:43.822Z,11.55
2022-12-27T22:08:50.530Z,11.55
2022-12-27T22:13:54.156Z,12.77
2022-12-27T22:18:58.134Z,11.57
2022-12-27T22:24:04.026Z,12.83
2022-12-27T22:29:07.908Z,11.65
2022-12-27T22:34:11.600Z,12.60
2022-12-27T22:39:16.461Z,11.43
2022-12-27T22:49:23.084Z,13.07
2022-12-27T22:55:03.224Z,12.90
2022-12-27T23:04:55.240Z,12.50
2022-12-27T23:10:00.260Z,12.23
2022-12-27T23:15:03.967Z,12.20
2022-12-27T23:20:08.991Z,11.80
2022-12-27T23:25:14.015Z,11.40
2022-12-27T23:30:17.715Z,12.05
2022-12-27T23:35:21.117Z,11.15
2022-12-27T23:40:26.105Z,12.00
2022-12-27T23:50:32.455Z,12.00
2022-12-27T23:55:37.378Z,12.55
